Date,TemperatureHighF,TemperatureAvgF,TemperatureLowF,DewpointHighF,DewpointAvgF,DewpointLowF,HumidityHigh,HumidityAvg,HumidityLow,PressureMaxIn,PressureMinIn,WindSpeedMaxMPH,WindSpeedAvgMPH,GustSpeedMaxMPH,PrecipitationSumIn
2013-1-12,23.4,20.3,18.7,17.5,16.8,15.7,93,86,72,28.91,28.85,3,1,4,0.78
2013-1-13,22.8,20.4,18.3,22.3,19.1,16.6,98,95,92,28.94,28.88,8,1,8,0.00
2013-1-14,37.0,36.8,36.7,32.4,32.1,31.7,84,83,82,28.97,28.94,17,6,17,0.00
2013-2-8,44.8,40.9,33.4,35.0,33.1,24.0,84,74,59,28.64,28.50,23,7,23,3.64
2013-2-9,39.7,37.9,34.0,36.4,35.1,32.4,97,90,84,28.70,28.61,18,4,18,1.05
2013-2-10,35.1,33.2,31.1,34.5,32.6,30.6,98,98,96,28.73,28.70,5,1,5,0.00
2013-3-2,54.9,47.2,31.1,50.1,43.5,30.6,98,87,69,28.73,28.58,22,6,22,3.27
2013-3-3,51.1,40.2,30.2,36.0,28.7,25.0,92,65,40,28.73,28.64,20,4,20,0.00
2013-3-4,52.2,37.3,25.0,30.9,22.9,17.0,97,61,30,28.76,28.47,17,3,17,0.00
2013-3-5,41.9,36.9,32.5,36.4,27.4,18.0,96,70,44,28.50,28.23,10,2,12,0.00
2013-3-6,41.0,37.0,33.1,38.2,35.0,32.6,98,93,78,28.44,28.05,24,3,24,0.00
2013-3-7,58.3,43.7,31.8,44.2,33.3,29.3,98,70,36,28.55,28.41,12,2,13,0.75
2013-3-8,61.7,41.6,28.6,43.4,30.8,0.0,98,71,30,28.67,28.50,10,2,10,0.00
2013-3-9,59.9,44.5,29.5,39.7,29.9,24.5,98,61,32,28.97,28.64,20,4,20,0.00
2013-3-10,53.6,44.0,35.8,42.2,35.6,27.8,93,73,48,28.97,28.88,19,4,24,0.00
2013-3-11,55.8,46.4,41.9,47.3,44.0,40.1,98,92,67,28.91,28.70,10,3,10,0.00
2013-3-12,56.7,50.3,46.9,50.5,45.9,40.5,98,86,66,28.73,28.64,20,4,20,0.00
2013-3-13,69.1,52.8,43.7,48.5,44.0,41.2,97,74,39,28.73,28.58,13,3,13,0.00
2013-3-14,66.6,50.9,44.1,49.5,43.0,34.4,98,78,37,28.67,28.52,20,3,26,0.00
2013-3-15,61.0,51.2,46.2,49.8,45.9,41.1,98,83,53,28.76,28.58,13,3,13,0.00
2013-3-16,50.7,43.8,34.0,46.7,40.0,31.0,98,87,64,28.61,28.41,34,6,34,0.00
2013-3-17,42.4,36.7,33.6,34.0,31.4,27.5,98,82,58,28.73,28.52,33,7,33,0.00
2013-3-18,49.6,39.4,32.2,34.2,31.8,28.4,95,75,51,28.76,28.67,22,6,23,0.00
2013-3-19,43.7,37.3,30.0,36.8,30.0,23.2,98,77,49,28.73,28.26,13,2,14,0.00
2013-3-20,52.2,39.8,34.7,44.4,35.3,26.8,98,85,52,28.58,28.05,33,6,33,0.00
2013-3-21,44.6,36.4,33.8,34.6,31.8,28.0,96,84,58,28.76,28.55,30,7,30,0.00
2013-3-22,47.8,36.9,29.5,31.4,28.6,24.9,92,73,46,28.85,28.70,20,5,20,0.00
2013-3-23,53.2,36.9,29.1,33.1,28.4,23.8,97,75,37,28.88,28.76,8,1,8,0.00
2013-3-24,48.2,40.1,28.0,32.0,24.3,19.8,95,57,37,28.82,28.64,17,3,17,0.00
2013-3-25,57.2,44.6,33.1,34.9,26.2,19.7,66,50,35,28.67,28.44,15,3,15,0.00
2013-3-26,57.6,45.4,35.1,40.0,34.4,28.1,89,68,36,28.52,28.44,8,1,8,0.00
2013-3-27,67.6,49.4,37.9,48.1,41.9,36.2,96,78,38,28.52,28.41,8,1,8,0.00
2013-3-28,67.6,51.0,42.1,51.7,44.0,38.9,98,80,40,28.61,28.50,9,1,9,0.00
2013-3-29,72.3,54.8,44.1,50.2,43.3,37.2,95,70,33,28.70,28.58,9,2,9,8.71
2013-3-30,72.9,56.1,39.4,47.5,41.1,36.9,98,62,32,28.73,28.52,13,3,13,8.71
2013-3-31,75.2,58.1,41.7,48.6,39.7,34.4,87,54,28,28.55,28.35,13,3,13,0.00
2013-4-1,65.5,55.3,50.7,50.1,46.9,42.2,89,74,50,28.58,28.41,23,5,23,0.00
2013-4-2,66.0,55.2,45.0,48.7,44.4,39.7,91,69,41,28.64,28.55,20,5,22,0.00
2013-4-3,68.9,55.6,41.7,51.1,45.0,40.7,98,71,38,28.61,28.41,12,2,12,0.00
2013-4-4,57.2,52.5,49.3,55.0,48.3,44.6,97,86,70,28.44,28.20,16,2,20,0.00
2013-4-5,62.1,51.0,46.4,52.8,46.5,43.8,98,85,63,28.41,28.29,27,4,27,2.44
2013-4-6,51.4,45.6,39.6,46.5,41.5,37.5,98,86,66,28.47,28.26,28,5,28,0.00
2013-4-7,47.3,41.3,37.0,44.1,38.4,35.5,98,89,66,28.32,27.99,37,6,37,0.00
2013-4-8,55.6,44.3,37.9,40.3,37.1,33.9,96,77,51,28.73,28.32,23,5,23,0.00
2013-4-9,60.1,47.5,34.3,45.8,37.6,31.4,98,72,41,28.82,28.70,12,3,12,0.00
2013-4-10,58.6,48.9,42.6,49.8,41.0,32.8,98,75,50,28.73,28.47,32,6,32,0.00
2013-4-11,55.8,45.5,36.9,39.7,35.4,32.7,87,68,49,28.76,28.61,28,6,28,0.00
2013-4-12,55.0,43.1,31.5,42.1,35.7,30.9,98,78,45,28.64,28.23,34,4,39,0.00
2013-4-13,48.2,40.6,35.1,40.7,33.4,27.0,94,77,49,28.50,28.26,27,8,29,2.49
2013-4-14,55.8,42.6,34.2,38.2,33.9,26.9,96,74,40,28.47,28.32,172,5,229,0.00
2013-4-15,54.5,41.4,32.9,40.5,34.9,28.6,98,80,50,28.61,28.35,12,2,229,0.00
2013-4-16,58.1,42.7,32.4,41.8,33.8,24.9,98,75,37,28.85,28.61,10,2,10,0.00
2013-4-17,60.6,45.2,29.3,40.1,32.0,27.8,97,64,36,28.94,28.82,18,3,18,0.09
2013-4-18,59.7,48.1,43.3,47.5,37.2,31.2,98,67,46,28.94,28.73,18,5,20,0.00
2013-4-19,57.4,49.6,46.9,51.2,46.1,43.0,98,88,68,28.73,28.52,26,7,28,0.00
2013-4-20,56.1,49.3,45.1,45.6,40.0,36.0,97,71,50,28.73,28.64,20,6,22,0.00
2013-4-21,53.4,45.8,39.0,43.8,40.0,35.9,93,80,63,28.73,28.64,24,6,24,0.45
2013-4-22,64.4,48.4,33.3,42.4,30.3,20.9,98,56,25,28.94,28.73,13,4,15,0.00
2013-4-23,70.0,50.2,31.1,35.2,28.8,23.2,75,47,25,28.88,28.58,13,2,15,0.00
2013-4-24,77.0,55.4,35.6,37.0,30.1,24.1,67,41,21,28.82,28.47,15,2,15,0.00
2013-4-25,73.0,59.4,44.8,41.3,36.5,30.5,65,44,29,28.58,28.44,19,5,19,14.18
2013-4-26,78.8,61.8,46.6,48.5,38.7,27.8,87,49,21,28.67,28.58,19,4,19,0.00
2013-4-27,71.4,59.0,48.7,41.0,35.0,30.4,64,42,24,28.67,28.58,24,4,24,14.18
2013-4-28,63.7,53.8,47.8,50.2,42.1,33.6,95,67,38,28.67,28.41,33,6,33,0.00
2013-4-29,58.1,48.4,39.7,47.1,34.0,24.3,95,60,33,28.61,28.41,41,9,41,0.00
2013-4-30,56.1,44.0,37.8,37.6,29.4,0.0,100,58,38,28.88,28.61,23,6,229,0.00
2013-5-1,67.8,49.7,30.2,39.1,29.4,22.7,91,51,24,29.06,28.88,19,3,19,0.00
2013-5-2,79.3,58.6,38.1,38.9,31.8,22.6,56,38,21,30.24,28.70,13,2,13,0.00
2013-5-3,82.9,63.1,43.0,44.1,38.5,34.2,76,44,21,28.79,28.58,12,2,12,14.60
2013-5-4,52.7,51.8,51.1,42.3,41.5,40.9,69,68,67,28.64,28.61,3,1,3,0.00
2013-5-10,71.1,69.0,50.4,47.0,46.0,40.2,68,44,41,28.58,28.55,11,4,11,14.60
2013-5-11,89.8,72.7,58.6,56.3,49.7,43.3,73,47,24,28.64,28.41,14,3,17,0.00
2013-5-12,74.5,65.0,58.3,58.2,52.8,46.1,85,66,40,28.55,28.47,23,4,23,14.60
2013-5-13,68.5,58.2,48.0,56.7,48.5,36.0,97,71,46,28.64,28.44,33,5,33,0.04
2013-5-14,69.4,56.0,40.3,46.5,34.9,28.4,91,50,24,28.67,28.52,20,4,20,0.00
2013-5-15,63.1,52.3,43.9,46.8,40.9,31.9,83,66,47,28.55,28.47,13,2,15,0.00
2013-5-16,71.8,58.1,48.7,56.1,46.8,40.5,98,69,37,28.50,28.29,15,4,18,0.00
2013-5-17,67.3,54.9,48.2,47.9,43.4,0.0,95,68,38,28.50,28.41,17,5,229,0.20
2013-5-18,61.3,52.1,48.7,47.0,43.6,38.5,89,73,49,28.67,28.50,18,4,18,0.00
2013-5-19,66.0,56.4,48.0,49.7,44.7,41.4,89,67,44,28.82,28.67,18,5,19,14.84
2013-5-20,78.3,60.6,40.6,52.7,43.0,36.8,98,58,31,28.76,28.29,12,2,12,14.84
2013-5-21,60.1,48.4,38.7,43.6,39.3,35.0,95,72,47,28.38,28.20,23,5,23,0.04
2013-5-22,47.8,42.4,34.2,43.2,38.9,34.2,100,88,76,28.44,28.32,21,3,26,0.29
2013-5-23,56.5,45.7,37.9,48.3,42.0,37.2,98,87,70,28.52,28.41,9,2,10,0.00
2013-5-24,61.3,49.8,42.8,48.0,42.4,38.1,98,78,47,28.55,28.41,15,3,15,0.00
2013-5-25,70.3,55.7,44.6,54.0,44.4,38.2,98,70,35,28.52,28.38,14,3,14,0.00
2013-5-26,68.0,56.6,48.9,55.3,46.9,41.3,98,72,43,28.50,28.38,24,3,24,0.63
2013-5-27,56.3,50.9,44.2,55.0,49.0,42.6,98,93,76,28.47,28.23,18,2,18,0.37
2013-5-28,66.0,55.1,48.9,51.8,45.9,41.7,91,72,45,28.41,28.23,24,4,24,0.00
2013-5-29,60.4,51.2,34.2,52.9,47.6,0.0,98,88,58,28.50,28.11,31,3,32,0.00
2013-5-30,64.4,52.6,44.6,47.1,42.5,38.3,98,71,43,28.70,28.47,19,4,20,0.00
2013-5-31,73.2,57.4,43.3,50.0,43.8,37.8,98,65,32,28.82,28.64,13,4,13,17.33
2013-6-1,77.0,59.7,45.9,49.3,45.7,38.6,95,64,31,28.70,28.47,15,3,15,0.00
2013-6-2,72.3,60.9,48.4,55.5,46.5,41.6,98,62,38,28.50,28.41,23,4,23,17.33
2013-6-3,58.8,49.2,45.7,54.9,45.2,43.2,96,87,68,28.52,28.47,6,0,6,0.00
2013-8-5,92.7,82.7,59.5,64.0,55.4,51.4,80,41,27,28.52,28.29,16,4,16,18.12
2013-8-6,94.5,75.1,57.6,63.8,51.6,34.7,96,52,19,28.41,28.29,14,3,14,18.12
2013-8-7,91.8,74.2,57.9,55.9,50.0,43.8,81,46,24,28.41,28.29,20,4,21,0.00
2013-8-8,87.1,72.5,63.0,59.3,53.9,50.6,75,53,34,28.41,28.26,15,4,15,18.12
2013-8-9,90.0,71.6,61.0,63.5,57.9,51.1,95,66,30,28.38,28.20,15,4,15,18.16
2013-8-10,84.7,68.7,59.0,65.9,59.4,55.2,98,75,40,28.44,28.29,15,3,15,18.16
2013-8-11,84.9,69.0,61.3,59.6,55.1,46.8,87,65,30,28.47,28.35,14,4,15,18.20
2013-8-12,86.7,70.0,55.6,61.0,53.5,30.0,96,61,16,28.47,28.38,16,4,16,18.20
2013-8-13,90.7,70.6,55.4,59.0,51.9,43.0,98,58,20,28.52,28.32,11,3,11,18.20
2013-8-14,88.7,72.2,59.0,54.7,48.3,39.6,68,45,28,28.41,28.29,15,3,201,0.00
2013-8-15,88.0,72.9,63.7,61.2,55.1,47.3,76,55,30,28.44,28.35,18,4,18,18.20
2013-8-16,90.5,72.6,63.1,67.0,60.6,53.8,94,70,35,28.50,28.38,18,3,18,0.00
2013-8-17,86.5,72.2,59.7,62.1,53.4,47.0,91,56,30,28.50,28.41,20,4,20,0.00
2013-8-18,86.7,70.6,58.1,61.5,53.8,47.2,97,60,28,28.61,28.44,20,5,22,0.00
2013-8-19,86.7,70.8,58.3,60.4,51.9,43.4,97,57,29,28.52,28.41,24,5,24,0.00
2013-8-20,88.9,70.4,56.5,57.0,51.1,45.1,89,55,28,28.52,28.41,12,4,12,0.00
2013-8-21,91.6,71.1,52.5,53.9,44.6,38.1,81,44,18,28.50,28.35,13,2,13,0.00
2013-8-22,85.6,70.2,59.2,57.6,49.1,40.0,68,48,31,28.38,28.29,13,2,13,18.20
2013-8-23,80.4,68.9,62.6,60.8,54.6,46.9,91,62,35,28.35,28.26,21,5,21,18.24
2013-8-24,81.3,67.5,58.5,57.9,51.0,46.1,87,58,32,28.35,28.23,16,4,17,18.24
2013-8-25,73.6,60.9,34.2,63.0,54.5,0.0,98,80,56,28.41,28.29,9,2,10,0.04
2013-8-26,83.5,65.2,55.0,62.0,54.0,44.4,98,73,33,28.41,28.35,14,2,14,0.00
2013-8-27,90.3,69.0,52.5,60.2,52.4,47.0,97,61,27,28.44,28.17,13,2,13,0.00
2013-8-28,85.5,71.7,61.5,62.1,56.6,51.7,89,61,37,28.35,28.23,12,4,13,18.28
2013-8-29,81.3,68.7,63.0,66.8,57.9,52.3,93,70,40,28.50,28.29,16,3,17,0.13
2013-8-30,84.6,70.7,59.2,63.3,55.3,47.7,89,62,30,28.64,28.47,15,3,15,0.00
2013-8-31,93.6,71.1,52.5,58.1,50.4,44.7,93,55,20,28.50,28.23,13,2,14,18.41
2013-9-1,89.4,72.4,59.0,60.7,52.8,48.1,86,53,29,28.32,28.17,15,4,15,18.41
2013-9-2,88.7,73.4,61.9,55.3,51.7,49.0,71,49,29,28.35,28.23,15,4,16,0.00
2013-9-3,84.2,70.9,63.0,56.7,52.2,49.0,68,53,33,28.41,28.29,15,4,15,18.41
2013-9-4,81.1,68.1,56.8,61.0,54.2,0.0,100,64,38,28.44,28.35,15,4,15,0.00
2013-9-5,77.4,65.3,56.7,58.3,55.7,52.7,95,72,46,28.47,28.32,17,4,17,0.12
2013-9-6,69.4,60.0,55.4,58.7,55.0,51.0,98,84,56,28.58,28.41,17,3,20,0.54
2013-9-7,84.0,64.6,50.0,59.2,53.3,48.0,98,73,30,28.58,28.38,9,2,10,0.00
2013-9-8,89.1,70.1,53.6,59.9,54.5,47.5,98,64,27,28.52,28.38,8,2,11,19.07
2013-9-9,87.1,69.8,55.6,62.8,58.0,52.4,98,70,33,28.44,28.29,11,2,11,0.00
2013-9-10,93.4,75.2,57.6,63.8,52.7,40.1,98,54,18,28.41,28.29,14,3,14,19.07
2013-9-11,96.6,77.2,61.7,57.8,48.8,43.7,67,40,17,28.44,28.29,13,3,15,0.00
2013-9-12,93.9,74.1,58.1,60.7,54.7,46.7,82,54,27,28.41,28.26,10,2,12,0.00
2013-9-13,90.1,72.5,62.4,63.6,59.0,53.3,93,66,32,28.35,28.17,14,4,14,0.00
2013-9-14,97.0,71.8,58.3,64.2,55.4,45.6,98,66,18,28.29,28.08,10,3,11,19.07
2013-9-15,80.6,67.4,60.6,63.9,57.1,53.1,93,71,43,28.26,28.14,22,5,23,0.00
2013-9-16,72.3,62.8,56.1,54.4,51.4,47.5,89,68,45,28.41,28.26,17,4,17,0.00
2013-9-17,68.7,58.3,34.2,53.0,48.8,0.0,94,73,43,28.41,28.23,24,4,24,0.00
2013-9-18,72.3,58.3,47.3,51.4,46.2,40.0,89,67,34,28.52,28.38,23,5,23,19.07
2013-9-19,81.1,59.8,42.3,48.8,40.6,34.9,94,56,21,28.52,28.26,14,3,15,19.07
2013-9-20,83.1,62.3,48.7,52.5,42.2,36.0,94,51,22,28.26,28.05,26,3,26,19.07
2013-9-21,73.8,59.2,53.1,57.7,51.3,45.0,98,77,39,28.23,28.11,14,3,15,19.07
2013-9-22,56.3,56.3,56.3,49.9,49.9,49.5,79,79,79,28.20,28.20,5,3,6,0.00
2013-9-29,55.0,50.2,48.9,52.9,49.2,44.5,98,96,76,28.23,27.82,29,4,29,0.00
2013-9-30,56.5,49.9,46.6,50.7,44.5,38.6,98,82,62,28.44,28.02,22,6,28,0.00
2013-10-1,56.3,47.4,43.9,52.8,45.1,38.5,98,92,58,28.67,28.41,15,2,15,0.00
2013-10-2,59.2,46.5,41.0,52.0,42.6,38.6,98,87,52,28.64,28.50,13,2,13,0.00
2013-10-3,61.2,49.4,40.1,48.5,40.7,37.6,98,75,45,28.91,28.58,13,3,13,0.00
2013-10-4,67.3,47.5,35.6,49.2,39.3,35.1,98,78,33,28.97,28.82,13,2,13,4.77
2013-10-5,71.2,51.4,37.4,48.0,39.7,35.7,98,70,29,28.88,28.64,12,2,12,23.84
2013-10-6,75.9,56.9,39.7,49.0,39.3,33.7,95,57,28,28.67,28.41,15,3,15,23.84
2013-10-7,59.4,51.7,47.8,51.5,45.1,0.0,100,79,48,28.55,28.38,17,5,18,23.84
2013-10-8,56.8,46.8,38.5,50.1,44.0,38.0,98,90,67,28.52,28.38,24,4,24,0.00
2013-10-9,66.4,46.7,34.3,51.7,39.8,33.8,98,81,37,28.58,28.41,9,1,9,0.00
2013-10-10,61.0,50.5,42.1,47.2,42.4,35.7,98,76,43,28.50,28.35,23,4,23,0.00
2013-10-11,59.2,49.9,44.2,47.8,42.4,34.8,97,77,44,28.61,28.50,12,2,12,0.00
2013-10-12,52.5,47.6,40.3,47.1,43.2,0.0,98,85,69,28.61,28.47,13,2,229,0.00
2013-10-13,69.4,49.5,36.1,51.9,39.9,35.6,98,75,32,28.76,28.61,5,1,6,0.00
2013-10-14,60.8,43.6,36.7,49.7,40.3,36.2,98,90,49,28.88,28.76,7,1,7,0.00
2013-10-27,65.1,48.0,43.5,48.3,44.2,35.3,98,87,33,28.79,28.23,18,2,18,23.84
2013-10-28,57.4,47.8,37.4,41.8,26.3,19.6,81,44,30,28.41,28.29,45,7,45,0.00
2013-10-29,60.8,43.1,31.8,31.9,24.0,18.8,68,49,27,28.52,28.38,10,2,10,0.00
2013-10-30,59.5,46.4,32.9,36.3,29.6,23.8,89,55,35,28.58,28.47,18,4,20,0.00
2013-10-31,59.2,51.7,48.4,49.1,43.8,0.0,87,75,16,28.73,28.55,20,5,30,0.00
2013-11-1,67.1,51.2,38.1,52.4,43.0,37.3,98,77,37,28.76,28.38,6,2,6,0.00
2013-11-2,54.9,45.9,37.8,49.1,41.6,33.0,98,85,59,28.44,28.11,33,7,33,0.00
2013-11-3,48.2,40.5,35.2,40.1,37.3,33.3,98,88,64,28.55,28.41,57,6,57,0.00
2013-11-4,43.2,39.3,33.6,41.9,38.6,33.1,98,97,90,28.64,28.52,10,1,10,0.00
2013-11-5,50.2,44.0,39.6,48.9,42.5,39.0,98,95,80,28.70,28.52,172,2,172,0.00
2013-11-6,48.7,45.8,41.7,48.2,45.2,41.2,98,98,91,28.82,28.64,10,3,10,0.00
2013-11-7,48.4,43.7,40.6,44.6,41.5,36.3,98,92,65,28.67,28.38,38,7,38,0.00
2013-11-8,51.1,44.7,38.3,44.4,40.9,37.8,98,87,67,28.67,28.50,17,4,17,0.00
2013-11-9,47.1,41.7,36.1,44.2,38.8,35.6,98,90,72,28.64,28.58,10,1,10,0.00
2013-11-10,52.7,46.1,39.0,46.6,41.0,38.2,98,84,59,28.64,28.58,10,2,10,0.00
2013-11-13,63.3,50.5,37.6,49.2,42.7,36.4,98,77,44,28.97,28.76,11,4,14,0.00
2013-11-14,49.6,43.3,37.0,42.5,39.6,36.0,98,87,67,28.79,28.52,23,4,23,0.00
2013-11-15,44.4,42.0,40.1,42.9,38.2,33.4,95,87,72,28.55,27.90,32,8,32,0.00
2013-11-16,47.7,41.9,37.8,43.6,36.5,32.9,97,81,62,28.29,27.88,33,8,33,596.68
2013-11-17,43.0,42.8,42.8,36.1,36.1,34.8,77,77,77,28.29,28.26,15,3,16,0.00
2013-11-25,52.7,34.4,29.1,50.7,20.1,17.7,93,56,38,28.91,28.29,8,2,10,0.00
2013-11-26,44.8,31.9,24.4,28.6,21.9,18.6,86,68,41,28.91,28.70,9,2,9,0.00
2013-11-27,42.4,32.9,27.0,29.5,23.6,0.0,100,70,48,28.70,28.58,13,2,13,0.00
2013-11-28,48.6,33.4,25.2,33.0,26.3,22.8,96,78,43,28.73,28.64,8,1,9,0.00
2013-11-29,43.9,35.2,26.2,41.3,31.9,25.5,98,88,71,28.82,28.70,11,2,11,0.00
2013-11-30,54.5,43.8,36.3,46.0,40.7,35.8,98,89,63,28.88,28.70,13,6,13,0.00
2013-12-1,55.0,49.9,43.0,51.3,47.8,42.2,98,93,76,28.73,28.32,8,8,8,0.00
2013-12-2,47.5,37.6,33.8,46.8,33.9,30.1,98,87,70,28.52,28.29,8,8,8,0.00
2013-12-3,42.3,31.0,22.8,32.8,21.2,10.4,98,69,40,28.79,28.50,8,8,8,0.00
2013-12-4,34.3,25.5,16.7,17.3,9.0,4.4,67,50,36,28.88,28.76,8,8,8,0.00
2013-12-5,26.6,18.3,11.7,18.9,10.5,5.6,84,71,50,28.82,28.70,8,8,8,0.00
2013-12-6,18.7,17.1,16.0,16.7,11.7,2.3,97,80,52,28.76,28.52,8,8,8,0.00
2013-12-7,27.5,14.2,2.8,3.5,-3.8,-13.7,53,44,35,28.88,28.58,8,8,8,0.00
2013-12-8,31.3,9.6,0.5,12.8,-6.7,-15.8,75,47,39,29.03,28.85,8,8,8,0.00
2013-12-9,35.4,22.8,6.4,28.0,12.4,-9.1,90,65,48,29.03,28.85,8,8,8,0.00
2013-12-10,39.0,31.6,23.5,32.6,28.4,23.1,98,89,62,28.91,28.82,8,8,8,0.00
2013-12-11,36.9,27.4,23.5,27.1,20.6,15.2,98,77,44,28.91,28.76,8,8,8,0.00
2013-12-12,38.1,27.3,18.5,32.6,21.0,14.5,98,78,52,28.79,28.58,8,8,8,0.00
2013-12-13,46.0,38.5,30.0,43.5,37.5,29.5,98,96,86,28.91,28.64,8,8,8,0.00
2013-12-14,48.2,38.9,34.2,46.6,37.4,33.7,98,95,74,28.94,28.82,8,8,8,0.00
2013-12-15,49.5,47.3,36.0,43.3,41.7,35.5,98,81,75,28.91,28.82,172,7,172,0.00
2013-12-16,57.6,43.1,33.1,43.3,37.1,31.5,98,81,47,28.91,28.76,13,2,13,0.00
2013-12-17,52.7,38.2,29.7,41.6,31.6,24.3,98,80,38,28.76,28.55,13,2,13,0.00
2013-12-18,46.6,38.6,28.8,43.3,34.2,24.0,98,85,54,28.58,28.44,20,4,20,0.00
2013-12-19,43.2,30.8,24.3,33.8,23.4,14.3,98,77,39,28.79,28.55,8,1,8,0.00
2013-12-20,44.6,37.4,29.7,42.8,30.8,14.0,98,79,42,28.64,28.23,32,8,35,0.00
2013-12-21,47.3,44.7,43.2,43.2,40.4,0.0,100,85,72,28.67,28.29,34,7,34,0.00
2013-12-22,80.2,47.0,43.3,44.5,42.3,30.0,94,84,16,28.85,28.64,26,5,26,0.00
2013-12-23,52.3,46.7,39.4,47.5,41.2,29.0,97,81,60,29.00,28.67,36,8,36,0.00
2013-12-24,52.0,38.8,28.9,36.0,31.2,25.7,98,76,44,29.09,28.97,11,2,14,0.00
2013-12-25,46.9,32.6,26.4,37.7,28.4,24.8,98,86,50,29.03,28.88,10,1,10,0.00
2013-12-26,46.4,32.6,26.2,37.0,28.1,24.5,98,85,49,28.91,28.76,8,1,8,0.00
2013-12-27,48.9,33.9,23.5,43.5,30.9,23.1,98,90,49,28.85,28.64,15,2,15,0.00
2013-12-28,54.9,37.9,29.3,44.6,33.2,27.1,98,85,47,29.00,28.82,10,2,10,0.00
2013-12-29,40.8,32.5,26.4,37.8,30.6,0.0,100,93,72,29.00,28.76,11,2,13,0.00
2013-12-30,39.4,34.9,32.2,35.6,32.9,0.0,98,93,76,28.79,28.64,12,1,12,0.00
2013-12-31,49.1,42.8,35.8,38.2,35.0,30.1,98,75,50,28.88,28.70,14,3,26,0.00
2014-1-1,49.8,38.1,31.1,42.5,34.7,30.6,98,89,58,28.94,28.82,10,2,11,0.00
2014-1-2,53.4,39.6,33.1,42.3,35.1,31.2,98,85,52,28.85,28.41,31,3,31,0.00